Terminal Aerodrome Forecast
Issued by NWS

Home | Current Version | Previous Version | Text Only | Print | Product List | Glossary Off
Versions: 1 2 3 4 5 6 7 8 9 10 11 12 13 14 15 16 17 18 19 20 21 22 23 24 25 26 27

000
FTUS43 KLOT 241139
TAFORD
TAF
KORD 241139Z 2412/2518 20011G16KT P6SM FEW045 BKN200 WS015/21050KT
     FM241400 22016G24KT P6SM BKN250
     FM241700 22020G30KT P6SM FEW035 SCT250
     FM242200 21013G21KT P6SM BKN040
     FM250200 06010KT 3SM BR VCSH SCT008 BKN025
     FM250400 05008KT 2SM -RA BR SCT004 OVC007
     FM250800 05009KT 2SM -RA BR SCT002 OVC005=

USA.gov is the U.S. government's official web portal to all federal, state and local government web resources and services.